createdAt,value
2022-08-02T00:03:58.807Z,25.65
2022-08-02T00:08:59.075Z,25.56
2022-08-02T00:13:58.136Z,25.57
2022-08-02T00:18:56.936Z,25.54
2022-08-02T00:24:28.210Z,25.46
2022-08-02T00:29:16.245Z,25.44
2022-08-02T00:34:28.674Z,25.39
2022-08-02T00:39:34.355Z,25.34
2022-08-02T00:44:36.139Z,25.01
2022-08-02T00:49:34.932Z,25.02
2022-08-02T00:54:33.962Z,24.85
2022-08-02T00:59:32.696Z,24.81
2022-08-02T01:04:32.859Z,24.70
2022-08-02T01:09:31.791Z,24.52
2022-08-02T01:14:31.096Z,24.40
2022-08-02T01:19:40.489Z,24.38
2022-08-02T01:24:56.994Z,24.34
2022-08-02T01:30:01.839Z,24.34
2022-08-02T01:35:04.178Z,24.24
2022-08-02T01:40:10.650Z,24.17
2022-08-02T01:45:13.720Z,24.30
2022-08-02T01:50:15.341Z,24.26
2022-08-02T01:55:18.904Z,24.21
2022-08-02T02:00:20.909Z,24.19
2022-08-02T02:05:21.951Z,24.08
2022-08-02T02:10:26.123Z,24.02
2022-08-02T02:15:27.597Z,23.99
2022-08-02T02:20:28.253Z,23.93
2022-08-02T02:25:36.427Z,23.92
2022-08-02T02:30:50.488Z,23.93
2022-08-02T02:35:51.809Z,24.01
2022-08-02T02:40:51.372Z,24.06
2022-08-02T02:45:52.645Z,24.04
2022-08-02T02:50:52.739Z,23.92
2022-08-02T02:56:02.626Z,23.98
2022-08-02T03:01:20.901Z,24.01
2022-08-02T03:06:40.568Z,24.10
2022-08-02T03:11:40.698Z,24.08
2022-08-02T03:16:48.643Z,23.97
2022-08-02T03:21:57.427Z,23.94
2022-08-02T03:26:56.600Z,23.97
2022-08-02T03:31:57.764Z,24.05
2022-08-02T03:36:58.255Z,24.08
2022-08-02T03:41:57.442Z,24.14
2022-08-02T03:46:58.851Z,24.22
2022-08-02T03:51:57.944Z,24.29
2022-08-02T03:56:57.118Z,24.36
2022-08-02T04:01:57.343Z,24.30
2022-08-02T04:06:56.114Z,24.16
2022-08-02T04:11:56.552Z,24.33
2022-08-02T04:17:01.093Z,24.38
2022-08-02T04:22:04.913Z,24.31
2022-08-02T04:27:19.476Z,24.28
2022-08-02T04:32:25.714Z,24.52
2022-08-02T04:37:24.749Z,24.54
2022-08-02T04:42:28.350Z,24.53
2022-08-02T04:47:54.485Z,24.66
2022-08-02T04:52:47.356Z,24.59
2022-08-02T04:57:58.856Z,24.70
2022-08-02T05:03:00.314Z,24.68
2022-08-02T05:07:59.775Z,24.81
2022-08-02T05:12:58.796Z,24.86
2022-08-02T05:17:59.202Z,24.90
2022-08-02T05:22:57.963Z,24.78
2022-08-02T05:27:56.746Z,24.95
2022-08-02T05:32:55.566Z,25.08
2022-08-02T05:37:55.650Z,25.20
2022-08-02T05:42:54.520Z,25.37
2022-08-02T05:47:53.432Z,25.47
2022-08-02T05:52:58.234Z,25.55
2022-08-02T05:58:07.235Z,25.56
2022-08-02T06:03:17.898Z,25.46
2022-08-02T06:08:16.846Z,25.45
2022-08-02T06:13:17.604Z,25.70
2022-08-02T06:18:17.679Z,25.95
2022-08-02T06:23:17.925Z,26.18
2022-08-02T06:28:20.096Z,26.25
2022-08-02T06:33:18.799Z,26.41
2022-08-02T06:38:23.209Z,26.57
2022-08-02T06:43:30.339Z,26.69
2022-08-02T06:48:29.472Z,26.87
2022-08-02T06:53:28.281Z,26.85
2022-08-02T06:58:28.431Z,26.97
2022-08-02T07:03:27.268Z,27.15
2022-08-02T07:08:26.401Z,27.35
2022-08-02T07:13:26.082Z,27.42
2022-08-02T07:18:26.476Z,27.77
2022-08-02T07:23:25.305Z,28.03
2022-08-02T07:28:24.874Z,28.11
2022-08-02T07:33:38.406Z,28.40
2022-08-02T07:38:37.990Z,28.61
2022-08-02T07:43:36.838Z,28.63
2022-08-02T07:48:36.908Z,28.95
2022-08-02T07:53:50.602Z,29.01
2022-08-02T07:58:50.656Z,29.21
2022-08-02T08:03:51.040Z,29.43
2022-08-02T08:08:50.317Z,29.56
2022-08-02T08:13:49.216Z,29.33
2022-08-02T08:18:48.116Z,29.50
2022-08-02T08:23:48.265Z,29.67
2022-08-02T08:28:47.043Z,29.80
2022-08-02T08:33:45.823Z,29.92
2022-08-02T08:38:44.574Z,30.15
2022-08-02T08:43:44.710Z,30.52
2022-08-02T08:48:48.082Z,31.32
2022-08-02T08:53:49.983Z,32.22
2022-08-02T08:58:50.290Z,33.22
2022-08-02T09:03:49.080Z,34.46
2022-08-02T09:08:48.180Z,35.28
2022-08-02T09:13:54.133Z,35.92
2022-08-02T09:18:53.250Z,36.71
2022-08-02T09:23:53.412Z,38.13
2022-08-02T09:29:00.949Z,39.18
2022-08-02T09:34:01.447Z,39.80
2022-08-02T09:39:02.606Z,39.21
2022-08-02T09:44:06.624Z,40.42
2022-08-02T09:49:08.370Z,41.08
2022-08-02T09:54:09.968Z,41.35
2022-08-02T09:59:11.313Z,41.45
2022-08-02T10:04:19.919Z,41.66
2022-08-02T10:09:21.398Z,42.77
2022-08-02T10:14:23.630Z,43.49
2022-08-02T10:20:00.741Z,43.26
2022-08-02T10:24:47.771Z,43.50
2022-08-02T10:29:55.162Z,44.12
2022-08-02T10:34:56.677Z,43.72
2022-08-02T10:39:58.685Z,43.22
2022-08-02T10:45:10.899Z,43.02
2022-08-02T10:50:10.399Z,43.86
2022-08-02T10:55:14.673Z,44.61
2022-08-02T11:00:29.286Z,43.50
2022-08-02T11:05:42.769Z,43.71
2022-08-02T11:10:42.768Z,43.70
2022-08-02T11:15:55.382Z,43.28
2022-08-02T11:21:23.458Z,43.71
2022-08-02T11:26:45.557Z,43.78
2022-08-02T11:31:47.393Z,43.51
2022-08-02T11:36:50.880Z,43.17
2022-08-02T11:41:54.310Z,42.74
2022-08-02T11:46:58.747Z,41.75
2022-08-02T11:52:01.937Z,40.49
2022-08-02T11:57:20.859Z,39.70
2022-08-02T12:02:22.897Z,40.08
2022-08-02T12:07:30.402Z,40.54
2022-08-02T12:12:34.759Z,41.10
2022-08-02T12:17:52.353Z,40.77
2022-08-02T12:22:52.063Z,39.63
2022-08-02T12:27:53.525Z,38.28
2022-08-02T12:33:13.258Z,38.64
2022-08-02T12:38:12.903Z,38.12
2022-08-02T12:43:20.109Z,37.96
2022-08-02T12:48:37.136Z,38.18
2022-08-02T12:53:36.860Z,38.41
2022-08-02T12:58:49.798Z,38.31
2022-08-02T13:04:11.414Z,38.04
2022-08-02T13:09:17.700Z,38.20
2022-08-02T13:14:17.582Z,38.10
2022-08-02T13:19:17.808Z,37.79
2022-08-02T13:55:57.975Z,37.38
2022-08-02T14:00:57.926Z,37.38
2022-08-02T14:06:11.196Z,37.86
2022-08-02T14:11:15.110Z,38.05
2022-08-02T14:16:33.057Z,38.12
2022-08-02T14:21:46.536Z,37.02
2022-08-02T14:26:49.996Z,37.30
2022-08-02T14:32:04.511Z,37.71
2022-08-02T14:37:05.255Z,37.77
2022-08-02T14:42:08.427Z,37.98
2022-08-02T14:47:11.559Z,38.08
2022-08-02T14:52:13.590Z,37.31
2022-08-02T14:57:14.554Z,37.26
2022-08-02T15:02:14.677Z,37.33
2022-08-02T15:07:15.706Z,37.14
2022-08-02T15:12:18.092Z,36.77
2022-08-02T15:17:17.749Z,37.13
2022-08-02T15:22:20.011Z,37.81
2022-08-02T15:27:21.276Z,38.98
2022-08-02T15:32:20.787Z,39.95
2022-08-02T15:37:19.953Z,40.82
2022-08-02T15:42:21.087Z,41.14
2022-08-02T15:47:29.988Z,41.46
2022-08-02T15:52:29.198Z,41.54
2022-08-02T15:57:33.121Z,41.21
2022-08-02T16:02:35.553Z,40.65
2022-08-02T16:07:39.527Z,40.25
2022-08-02T16:12:41.521Z,39.99
2022-08-02T16:17:52.083Z,39.82
2022-08-02T16:22:54.070Z,39.41
2022-08-02T16:27:59.365Z,39.05
2022-08-02T16:33:08.296Z,38.39
2022-08-02T16:38:08.191Z,37.85
2022-08-02T16:43:11.597Z,37.37
2022-08-02T16:48:25.673Z,37.01
2022-08-02T16:53:36.801Z,36.57
2022-08-02T16:58:38.378Z,36.30
2022-08-02T17:03:55.976Z,36.01
2022-08-02T17:08:57.238Z,35.70
2022-08-02T17:14:05.595Z,35.46
2022-08-02T17:19:08.821Z,35.19
2022-08-02T17:24:08.857Z,34.91
2022-08-02T17:29:19.925Z,34.68
2022-08-02T17:34:19.924Z,34.41
2022-08-02T17:39:33.522Z,34.16
2022-08-02T17:44:38.396Z,33.91
2022-08-02T17:49:47.923Z,33.70
2022-08-02T17:54:54.003Z,33.46
2022-08-02T18:00:04.215Z,33.29
2022-08-02T18:05:05.251Z,33.11
2022-08-02T18:10:15.486Z,32.90
2022-08-02T18:15:17.276Z,32.74
2022-08-02T18:20:20.866Z,32.59
2022-08-02T18:25:37.176Z,32.49
2022-08-02T18:30:41.838Z,32.35
2022-08-02T18:35:40.979Z,32.22
2022-08-02T18:40:40.786Z,32.11
2022-08-02T18:46:05.262Z,31.99
2022-08-02T18:51:03.350Z,31.87
2022-08-02T18:56:04.240Z,31.75
2022-08-02T19:01:15.097Z,31.62
2022-08-02T19:06:28.828Z,31.41
2022-08-02T19:11:34.817Z,31.36
2022-08-02T19:16:41.489Z,31.26
2022-08-02T19:22:17.911Z,31.18
2022-08-02T19:27:04.754Z,31.10
2022-08-02T19:32:42.348Z,31.03
2022-08-02T19:37:38.457Z,30.94
2022-08-02T19:44:20.421Z,30.87
2022-08-02T19:48:23.581Z,30.78
2022-08-02T19:53:23.885Z,30.69
2022-08-02T19:58:28.830Z,30.53
2022-08-02T20:03:52.025Z,30.37
2022-08-02T20:08:53.403Z,30.21
2022-08-02T20:13:56.857Z,30.06
2022-08-02T20:18:57.254Z,29.80
2022-08-02T20:23:56.633Z,29.50
2022-08-02T20:28:56.664Z,29.30
2022-08-02T20:34:02.975Z,29.09
2022-08-02T20:39:02.012Z,28.84
2022-08-02T20:44:01.188Z,28.71
2022-08-02T20:49:05.528Z,28.68
2022-08-02T20:54:08.299Z,28.61
2022-08-02T20:59:15.913Z,28.56
2022-08-02T21:04:16.591Z,28.54
2022-08-02T21:09:19.720Z,28.37
2022-08-02T21:14:38.638Z,28.23
2022-08-02T21:19:37.569Z,28.11
2022-08-02T21:24:44.823Z,27.91
2022-08-02T21:29:46.289Z,27.79
2022-08-02T21:34:45.625Z,27.77
2022-08-02T21:39:49.984Z,27.75
2022-08-02T21:44:51.633Z,27.76
2022-08-02T21:50:13.645Z,27.72
2022-08-02T21:55:14.891Z,27.62
2022-08-02T22:00:18.113Z,27.60
2022-08-02T22:05:29.080Z,27.65
2022-08-02T22:38:16.580Z,27.35
2022-08-02T22:42:33.673Z,27.33
2022-08-02T22:47:51.121Z,27.25
2022-08-02T22:54:11.891Z,27.26
2022-08-02T23:05:53.383Z,27.16
2022-08-02T23:11:20.291Z,27.07
2022-08-02T23:16:40.432Z,27.01
2022-08-02T23:22:02.313Z,26.89
2022-08-02T23:27:03.264Z,26.83
